sensor_id;sensor_type;location;lat;lon;timestamp;pressure;altitude;pressure_sealevel;temperature;humidity
54556;BME280;57291;37.520;15.106;2023-05-27T00:01:49;101021.75;;;19.65;78.41
54556;BME280;57291;37.520;15.106;2023-05-27T00:04:18;101017.03;;;19.65;78.21
54556;BME280;57291;37.520;15.106;2023-05-27T00:06:47;101008.88;;;19.69;78.26
54556;BME280;57291;37.520;15.106;2023-05-27T00:09:14;101011.63;;;19.69;77.68
54556;BME280;57291;37.520;15.106;2023-05-27T00:11:42;101016.66;;;19.67;77.95
54556;BME280;57291;37.520;15.106;2023-05-27T00:14:09;101019.44;;;19.67;77.93
54556;BME280;57291;37.520;15.106;2023-05-27T00:16:36;101018.63;;;19.66;77.89
54556;BME280;57291;37.520;15.106;2023-05-27T00:19:07;101016.66;;;19.67;77.73
54556;BME280;57291;37.520;15.106;2023-05-27T00:21:36;101021.47;;;19.70;77.30
54556;BME280;57291;37.520;15.106;2023-05-27T00:24:03;101020.34;;;19.71;77.13
54556;BME280;57291;37.520;15.106;2023-05-27T00:26:31;101012.50;;;19.73;76.98
54556;BME280;57291;37.520;15.106;2023-05-27T00:28:59;101013.31;;;19.74;77.12
54556;BME280;57291;37.520;15.106;2023-05-27T00:31:27;101005.41;;;19.72;76.93
54556;BME280;57291;37.520;15.106;2023-05-27T00:33:54;101014.38;;;19.69;76.98
54556;BME280;57291;37.520;15.106;2023-05-27T00:36:22;101014.00;;;19.71;76.94
54556;BME280;57291;37.520;15.106;2023-05-27T00:38:49;101008.97;;;19.60;77.89
54556;BME280;57291;37.520;15.106;2023-05-27T00:41:16;101015.53;;;19.56;77.68
54556;BME280;57291;37.520;15.106;2023-05-27T00:43:44;101019.44;;;19.55;77.79
54556;BME280;57291;37.520;15.106;2023-05-27T00:46:11;101022.66;;;19.57;77.15
54556;BME280;57291;37.520;15.106;2023-05-27T00:48:39;101021.06;;;19.56;76.46
54556;BME280;57291;37.520;15.106;2023-05-27T00:51:06;101022.91;;;19.52;76.93
54556;BME280;57291;37.520;15.106;2023-05-27T00:53:42;101016.13;;;19.49;76.89
54556;BME280;57291;37.520;15.106;2023-05-27T00:56:11;101027.50;;;19.48;76.41
54556;BME280;57291;37.520;15.106;2023-05-27T00:58:39;101026.69;;;19.47;76.10
54556;BME280;57291;37.520;15.106;2023-05-27T01:01:07;101026.34;;;19.49;80.28
54556;BME280;57291;37.520;15.106;2023-05-27T01:03:34;101031.19;;;19.39;83.12
54556;BME280;57291;37.520;15.106;2023-05-27T01:06:27;101025.25;;;19.25;84.22
54556;BME280;57291;37.520;15.106;2023-05-27T01:11:37;101031.34;;;19.18;84.82
54556;BME280;57291;37.520;15.106;2023-05-27T01:14:10;101026.41;;;19.12;85.85
54556;BME280;57291;37.520;15.106;2023-05-27T01:16:38;101025.94;;;19.10;86.37
54556;BME280;57291;37.520;15.106;2023-05-27T01:19:15;101027.56;;;18.98;86.33
54556;BME280;57291;37.520;15.106;2023-05-27T01:21:48;101021.81;;;18.91;86.71
54556;BME280;57291;37.520;15.106;2023-05-27T01:24:19;101022.50;;;18.88;87.29
54556;BME280;57291;37.520;15.106;2023-05-27T01:26:47;101023.44;;;18.92;87.38
54556;BME280;57291;37.520;15.106;2023-05-27T01:29:16;101023.56;;;18.96;87.56
54556;BME280;57291;37.520;15.106;2023-05-27T01:32:17;101021.81;;;19.04;86.65
54556;BME280;57291;37.520;15.106;2023-05-27T01:35:09;101029.75;;;19.05;86.36
54556;BME280;57291;37.520;15.106;2023-05-27T01:37:41;101025.03;;;19.06;86.38
54556;BME280;57291;37.520;15.106;2023-05-27T01:40:11;101030.66;;;19.09;85.87
54556;BME280;57291;37.520;15.106;2023-05-27T01:42:41;101024.09;;;19.14;85.98
54556;BME280;57291;37.520;15.106;2023-05-27T01:45:11;101023.88;;;19.19;87.95
54556;BME280;57291;37.520;15.106;2023-05-27T01:47:39;101022.03;;;19.11;88.71
54556;BME280;57291;37.520;15.106;2023-05-27T01:50:07;101017.81;;;19.01;89.55
54556;BME280;57291;37.520;15.106;2023-05-27T01:52:34;101027.56;;;18.98;90.88
54556;BME280;57291;37.520;15.106;2023-05-27T01:55:02;101029.28;;;18.91;90.99
54556;BME280;57291;37.520;15.106;2023-05-27T01:57:32;101022.75;;;18.83;91.24
54556;BME280;57291;37.520;15.106;2023-05-27T01:59:59;101021.00;;;18.79;91.66
54556;BME280;57291;37.520;15.106;2023-05-27T02:02:27;101023.75;;;18.79;90.06
54556;BME280;57291;37.520;15.106;2023-05-27T02:04:54;101016.78;;;18.81;88.93
54556;BME280;57291;37.520;15.106;2023-05-27T02:07:21;101028.84;;;18.89;90.57
54556;BME280;57291;37.520;15.106;2023-05-27T02:09:50;101022.06;;;18.86;89.77
54556;BME280;57291;37.520;15.106;2023-05-27T02:12:17;101023.91;;;18.82;89.63
54556;BME280;57291;37.520;15.106;2023-05-27T02:14:46;101024.34;;;18.84;89.89
54556;BME280;57291;37.520;15.106;2023-05-27T02:17:13;101017.00;;;18.88;90.61
54556;BME280;57291;37.520;15.106;2023-05-27T02:19:41;101022.75;;;18.83;92.03
54556;BME280;57291;37.520;15.106;2023-05-27T02:22:10;101026.63;;;18.70;92.25
54556;BME280;57291;37.520;15.106;2023-05-27T02:24:37;101022.00;;;18.62;92.94
54556;BME280;57291;37.520;15.106;2023-05-27T02:27:04;101019.59;;;18.60;93.30
54556;BME280;57291;37.520;15.106;2023-05-27T02:29:32;101017.66;;;18.61;92.85
54556;BME280;57291;37.520;15.106;2023-05-27T02:31:59;101013.75;;;18.62;90.95
54556;BME280;57291;37.520;15.106;2023-05-27T02:34:27;101018.44;;;18.61;91.53
54556;BME280;57291;37.520;15.106;2023-05-27T02:36:54;101028.19;;;18.59;91.55
54556;BME280;57291;37.520;15.106;2023-05-27T02:39:22;101023.84;;;18.58;91.54
54556;BME280;57291;37.520;15.106;2023-05-27T02:41:51;101027.06;;;18.60;87.25
54556;BME280;57291;37.520;15.106;2023-05-27T02:44:18;101024.66;;;18.70;89.55
54556;BME280;57291;37.520;15.106;2023-05-27T02:46:45;101027.28;;;18.67;90.74
54556;BME280;57291;37.520;15.106;2023-05-27T02:49:12;101025.44;;;18.59;91.71
54556;BME280;57291;37.520;15.106;2023-05-27T02:51:39;101022.00;;;18.49;93.02
54556;BME280;57291;37.520;15.106;2023-05-27T02:54:06;101029.09;;;18.50;93.91
54556;BME280;57291;37.520;15.106;2023-05-27T02:56:34;101024.97;;;18.44;94.19
54556;BME280;57291;37.520;15.106;2023-05-27T02:59:01;101020.03;;;18.38;94.41
54556;BME280;57291;37.520;15.106;2023-05-27T03:01:29;101016.91;;;18.27;94.38
54556;BME280;57291;37.520;15.106;2023-05-27T03:03:56;101023.53;;;18.26;94.90
54556;BME280;57291;37.520;15.106;2023-05-27T03:06:23;101021.50;;;18.23;94.84
54556;BME280;57291;37.520;15.106;2023-05-27T03:08:50;101031.34;;;18.24;93.88
54556;BME280;57291;37.520;15.106;2023-05-27T03:11:17;101022.84;;;18.29;92.24
54556;BME280;57291;37.520;15.106;2023-05-27T03:13:45;101031.81;;;18.38;89.81
54556;BME280;57291;37.520;15.106;2023-05-27T03:16:13;101030.66;;;18.39;88.86
54556;BME280;57291;37.520;15.106;2023-05-27T03:18:41;101041.16;;;18.46;87.67
54556;BME280;57291;37.520;15.106;2023-05-27T03:21:08;101028.50;;;18.45;88.76
54556;BME280;57291;37.520;15.106;2023-05-27T03:23:35;101035.16;;;18.44;88.82
54556;BME280;57291;37.520;15.106;2023-05-27T03:26:02;101033.91;;;18.41;89.07
54556;BME280;57291;37.520;15.106;2023-05-27T03:28:31;101029.56;;;18.40;89.44
54556;BME280;57291;37.520;15.106;2023-05-27T03:30:59;101031.94;;;18.42;89.59
54556;BME280;57291;37.520;15.106;2023-05-27T03:33:40;101033.91;;;18.41;89.83
54556;BME280;57291;37.520;15.106;2023-05-27T03:36:07;101031.16;;;18.41;90.29
54556;BME280;57291;37.520;15.106;2023-05-27T03:38:34;101031.50;;;18.40;90.34
54556;BME280;57291;37.520;15.106;2023-05-27T03:41:02;101030.34;;;18.41;90.32
54556;BME280;57291;37.520;15.106;2023-05-27T03:43:29;101033.22;;;18.44;90.97
54556;BME280;57291;37.520;15.106;2023-05-27T03:45:57;101035.97;;;18.44;90.78
54556;BME280;57291;37.520;15.106;2023-05-27T03:48:24;101029.09;;;18.50;90.89
54556;BME280;57291;37.520;15.106;2023-05-27T03:50:52;101026.47;;;18.54;90.32
54556;BME280;57291;37.520;15.106;2023-05-27T03:53:19;101030.81;;;18.55;90.19
54556;BME280;57291;37.520;15.106;2023-05-27T03:55:46;101036.31;;;18.55;90.59
54556;BME280;57291;37.520;15.106;2023-05-27T03:58:13;101027.06;;;18.60;89.89
54556;BME280;57291;37.520;15.106;2023-05-27T04:00:40;101034.16;;;18.61;90.02
54556;BME280;57291;37.520;15.106;2023-05-27T04:03:09;101037.84;;;18.65;89.82
54556;BME280;57291;37.520;15.106;2023-05-27T04:05:37;101043.59;;;18.72;90.36
54556;BME280;57291;37.520;15.106;2023-05-27T04:08:04;101041.56;;;18.81;89.72
54556;BME280;57291;37.520;15.106;2023-05-27T04:10:31;101035.16;;;18.89;89.23
54556;BME280;57291;37.520;15.106;2023-05-27T04:12:59;101038.81;;;18.93;86.76
54556;BME280;57291;37.520;15.106;2023-05-27T04:15:26;101035.81;;;18.98;86.63
54556;BME280;57291;37.520;15.106;2023-05-27T04:17:53;101053.72;;;19.05;86.56
54556;BME280;57291;37.520;15.106;2023-05-27T04:20:20;101050.75;;;19.10;86.18
54556;BME280;57291;37.520;15.106;2023-05-27T04:22:53;101051.75;;;19.17;86.31
54556;BME280;57291;37.520;15.106;2023-05-27T04:25:20;101046.94;;;19.14;85.00
54556;BME280;57291;37.520;15.106;2023-05-27T04:28:01;101048.69;;;19.19;84.40
54556;BME280;57291;37.520;15.106;2023-05-27T04:30:33;101054.63;;;19.21;84.07
54556;BME280;57291;37.520;15.106;2023-05-27T04:33:08;101053.34;;;19.31;83.25
54556;BME280;57291;37.520;15.106;2023-05-27T04:35:36;101052.66;;;19.34;82.49
54556;BME280;57291;37.520;15.106;2023-05-27T04:38:03;101059.91;;;19.38;82.80
54556;BME280;57291;37.520;15.106;2023-05-27T04:40:43;101052.09;;;19.40;83.47
54556;BME280;57291;37.520;15.106;2023-05-27T04:43:25;101062.09;;;19.45;83.41
54556;BME280;57291;37.520;15.106;2023-05-27T04:45:54;101057.47;;;19.49;82.98
54556;BME280;57291;37.520;15.106;2023-05-27T04:48:23;101054.13;;;19.56;83.13
54556;BME280;57291;37.520;15.106;2023-05-27T04:50:50;101056.63;;;19.61;82.73
54556;BME280;57291;37.520;15.106;2023-05-27T04:53:21;101054.69;;;19.61;82.68
54556;BME280;57291;37.520;15.106;2023-05-27T04:55:49;101058.03;;;19.67;83.07
54556;BME280;57291;37.520;15.106;2023-05-27T04:58:19;101060.88;;;19.71;82.45
54556;BME280;57291;37.520;15.106;2023-05-27T05:00:48;101061.34;;;19.73;82.53
54556;BME280;57291;37.520;15.106;2023-05-27T05:03:22;101058.59;;;19.73;81.75
54556;BME280;57291;37.520;15.106;2023-05-27T05:06:04;101061.31;;;19.85;80.95
54556;BME280;57291;37.520;15.106;2023-05-27T05:08:32;101067.63;;;19.85;80.66
54556;BME280;57291;37.520;15.106;2023-05-27T05:11:00;101065.09;;;19.80;82.21
54556;BME280;57291;37.520;15.106;2023-05-27T05:13:27;101068.53;;;19.89;81.69
54556;BME280;57291;37.520;15.106;2023-05-27T05:15:56;101072.19;;;19.94;82.16
54556;BME280;57291;37.520;15.106;2023-05-27T05:18:23;101069.66;;;20.01;82.61
54556;BME280;57291;37.520;15.106;2023-05-27T05:20:53;101070.59;;;19.92;81.86
54556;BME280;57291;37.520;15.106;2023-05-27T05:23:30;101071.66;;;20.16;82.32
54556;BME280;57291;37.520;15.106;2023-05-27T05:25:58;101070.69;;;20.52;79.76
54556;BME280;57291;37.520;15.106;2023-05-27T05:28:36;101073.56;;;21.54;76.07
54556;BME280;57291;37.520;15.106;2023-05-27T05:31:04;101076.31;;;22.94;70.51
54556;BME280;57291;37.520;15.106;2023-05-27T05:33:31;101069.94;;;23.43;67.61
54556;BME280;57291;37.520;15.106;2023-05-27T05:35:59;101072.50;;;23.29;66.74
54556;BME280;57291;37.520;15.106;2023-05-27T05:38:35;101074.88;;;22.81;67.76
54556;BME280;57291;37.520;15.106;2023-05-27T05:41:02;101076.25;;;22.06;70.40
54556;BME280;57291;37.520;15.106;2023-05-27T05:43:32;101078.06;;;21.78;72.10
54556;BME280;57291;37.520;15.106;2023-05-27T05:45:59;101073.22;;;21.56;72.24
54556;BME280;57291;37.520;15.106;2023-05-27T05:48:30;101076.91;;;21.44;73.11
54556;BME280;57291;37.520;15.106;2023-05-27T05:50:57;101076.00;;;22.14;73.56
54556;BME280;57291;37.520;15.106;2023-05-27T05:53:28;101075.38;;;23.36;67.82
54556;BME280;57291;37.520;15.106;2023-05-27T05:55:56;101082.44;;;25.02;62.00
54556;BME280;57291;37.520;15.106;2023-05-27T05:58:24;101080.72;;;26.15;57.34
54556;BME280;57291;37.520;15.106;2023-05-27T06:00:51;101077.69;;;27.17;54.08
54556;BME280;57291;37.520;15.106;2023-05-27T06:03:31;101086.31;;;27.83;53.35
54556;BME280;57291;37.520;15.106;2023-05-27T06:06:00;101085.75;;;28.20;50.91
54556;BME280;57291;37.520;15.106;2023-05-27T06:08:27;101085.53;;;28.56;49.33
54556;BME280;57291;37.520;15.106;2023-05-27T06:11:01;101083.69;;;28.91;47.82
54556;BME280;57291;37.520;15.106;2023-05-27T06:13:32;101090.25;;;29.18;47.34
54556;BME280;57291;37.520;15.106;2023-05-27T06:16:04;101087.16;;;29.09;46.84
54556;BME280;57291;37.520;15.106;2023-05-27T06:18:32;101085.47;;;29.15;46.93
54556;BME280;57291;37.520;15.106;2023-05-27T06:20:59;101082.38;;;29.06;46.70
54556;BME280;57291;37.520;15.106;2023-05-27T06:23:29;101084.03;;;29.00;47.14
54556;BME280;57291;37.520;15.106;2023-05-27T06:26:06;101084.13;;;28.86;46.60
54556;BME280;57291;37.520;15.106;2023-05-27T06:28:40;101090.22;;;28.73;46.45
54556;BME280;57291;37.520;15.106;2023-05-27T06:31:08;101074.75;;;28.58;46.24
54556;BME280;57291;37.520;15.106;2023-05-27T06:33:38;101070.75;;;28.56;47.50
54556;BME280;57291;37.520;15.106;2023-05-27T06:36:08;101071.38;;;28.22;48.25
54556;BME280;57291;37.520;15.106;2023-05-27T06:38:38;101074.63;;;29.21;45.86
54556;BME280;57291;37.520;15.106;2023-05-27T06:41:05;101078.22;;;29.94;44.21
54556;BME280;57291;37.520;15.106;2023-05-27T06:43:33;101071.44;;;30.52;40.08
54556;BME280;57291;37.520;15.106;2023-05-27T06:46:19;101073.84;;;30.50;42.02
54556;BME280;57291;37.520;15.106;2023-05-27T06:49:07;101074.44;;;29.77;43.81
54556;BME280;57291;37.520;15.106;2023-05-27T06:51:35;101074.25;;;29.23;45.54
54556;BME280;57291;37.520;15.106;2023-05-27T06:54:04;101073.50;;;28.63;47.14
54556;BME280;57291;37.520;15.106;2023-05-27T06:56:36;101079.97;;;27.72;51.41
54556;BME280;57291;37.520;15.106;2023-05-27T06:59:22;101072.88;;;27.06;52.28
54556;BME280;57291;37.520;15.106;2023-05-27T07:01:50;101070.91;;;26.64;52.60
54556;BME280;57291;37.520;15.106;2023-05-27T07:04:18;101066.91;;;26.58;53.58
54556;BME280;57291;37.520;15.106;2023-05-27T07:06:54;101071.31;;;26.77;54.72
54556;BME280;57291;37.520;15.106;2023-05-27T07:09:21;101069.31;;;26.95;54.00
54556;BME280;57291;37.520;15.106;2023-05-27T07:11:48;101074.50;;;26.82;54.16
54556;BME280;57291;37.520;15.106;2023-05-27T07:14:36;101068.44;;;26.37;55.59
54556;BME280;57291;37.520;15.106;2023-05-27T07:17:03;101076.06;;;26.48;55.20
54556;BME280;57291;37.520;15.106;2023-05-27T07:19:31;101062.16;;;26.69;55.71
54556;BME280;57291;37.520;15.106;2023-05-27T07:22:03;101064.53;;;26.81;56.00
54556;BME280;57291;37.520;15.106;2023-05-27T07:24:32;101062.94;;;26.73;53.67
54556;BME280;57291;37.520;15.106;2023-05-27T07:27:03;101065.31;;;27.35;53.86
54556;BME280;57291;37.520;15.106;2023-05-27T07:29:34;101060.94;;;27.24;54.16
54556;BME280;57291;37.520;15.106;2023-05-27T07:32:12;101058.16;;;27.17;55.19
54556;BME280;57291;37.520;15.106;2023-05-27T07:34:42;101055.38;;;27.06;55.48
54556;BME280;57291;37.520;15.106;2023-05-27T07:37:11;101064.16;;;26.79;56.05
54556;BME280;57291;37.520;15.106;2023-05-27T07:39:41;101056.97;;;26.60;56.78
54556;BME280;57291;37.520;15.106;2023-05-27T07:42:15;101059.28;;;26.33;58.57
54556;BME280;57291;37.520;15.106;2023-05-27T07:44:44;101053.66;;;26.19;59.45
54556;BME280;57291;37.520;15.106;2023-05-27T07:47:13;101067.22;;;26.24;58.71
54556;BME280;57291;37.520;15.106;2023-05-27T07:49:42;101056.09;;;26.24;59.47
54556;BME280;57291;37.520;15.106;2023-05-27T07:52:32;101055.22;;;25.99;60.45
54556;BME280;57291;37.520;15.106;2023-05-27T07:55:08;101059.16;;;25.87;60.23
54556;BME280;57291;37.520;15.106;2023-05-27T07:57:39;101057.16;;;25.80;60.08
54556;BME280;57291;37.520;15.106;2023-05-27T08:00:08;101053.72;;;26.26;56.30
54556;BME280;57291;37.520;15.106;2023-05-27T08:02:53;101060.06;;;26.19;54.91
54556;BME280;57291;37.520;15.106;2023-05-27T08:05:46;101058.38;;;25.93;57.12
54556;BME280;57291;37.520;15.106;2023-05-27T08:08:31;101057.81;;;25.63;57.39
54556;BME280;57291;37.520;15.106;2023-05-27T08:11:17;101056.91;;;25.37;57.73
54556;BME280;57291;37.520;15.106;2023-05-27T08:13:57;101060.59;;;25.04;58.72
54556;BME280;57291;37.520;15.106;2023-05-27T08:16:58;101052.84;;;25.24;60.31
54556;BME280;57291;37.520;15.106;2023-05-27T08:19:49;101062.75;;;25.18;60.25
54556;BME280;57291;37.520;15.106;2023-05-27T08:22:41;101062.97;;;25.54;58.82
54556;BME280;57291;37.520;15.106;2023-05-27T08:25:19;101057.47;;;25.75;58.74
54556;BME280;57291;37.520;15.106;2023-05-27T08:27:57;101062.63;;;25.69;59.76
54556;BME280;57291;37.520;15.106;2023-05-27T08:31:01;101065.88;;;25.82;59.71
54556;BME280;57291;37.520;15.106;2023-05-27T08:33:37;101055.56;;;25.86;60.34
54556;BME280;57291;37.520;15.106;2023-05-27T08:36:05;101057.59;;;25.96;58.21
54556;BME280;57291;37.520;15.106;2023-05-27T08:38:33;101059.06;;;25.80;58.23
54556;BME280;57291;37.520;15.106;2023-05-27T08:41:16;101059.03;;;25.65;60.29
54556;BME280;57291;37.520;15.106;2023-05-27T08:43:45;101061.75;;;25.51;61.37
54556;BME280;57291;37.520;15.106;2023-05-27T08:46:14;101055.34;;;24.88;63.36
54556;BME280;57291;37.520;15.106;2023-05-27T08:48:42;101060.94;;;24.92;62.91
54556;BME280;57291;37.520;15.106;2023-05-27T08:51:10;101058.66;;;25.04;62.27
54556;BME280;57291;37.520;15.106;2023-05-27T08:53:39;101049.44;;;24.97;63.08
54556;BME280;57291;37.520;15.106;2023-05-27T08:56:08;101053.09;;;25.04;62.66
54556;BME280;57291;37.520;15.106;2023-05-27T08:58:40;101048.09;;;25.28;62.37
54556;BME280;57291;37.520;15.106;2023-05-27T09:01:09;101047.31;;;25.27;61.24
54556;BME280;57291;37.520;15.106;2023-05-27T09:03:37;101049.31;;;25.31;62.07
54556;BME280;57291;37.520;15.106;2023-05-27T09:06:04;101043.88;;;25.56;60.65
54556;BME280;57291;37.520;15.106;2023-05-27T09:08:31;101051.91;;;25.71;58.81
54556;BME280;57291;37.520;15.106;2023-05-27T09:11:23;101051.19;;;25.89;57.52
54556;BME280;57291;37.520;15.106;2023-05-27T09:13:53;101055.22;;;26.06;56.54
54556;BME280;57291;37.520;15.106;2023-05-27T09:16:29;101056.88;;;26.21;55.83
54556;BME280;57291;37.520;15.106;2023-05-27T09:18:57;101053.63;;;26.01;56.55
54556;BME280;57291;37.520;15.106;2023-05-27T09:21:25;101047.63;;;25.88;56.92
54556;BME280;57291;37.520;15.106;2023-05-27T09:23:56;101041.25;;;25.81;57.39
54556;BME280;57291;37.520;15.106;2023-05-27T09:26:27;101050.97;;;25.42;57.66
54556;BME280;57291;37.520;15.106;2023-05-27T09:28:54;101049.66;;;25.25;57.67
54556;BME280;57291;37.520;15.106;2023-05-27T09:31:22;101044.44;;;25.17;57.48
54556;BME280;57291;37.520;15.106;2023-05-27T09:33:51;101041.03;;;24.90;58.77
54556;BME280;57291;37.520;15.106;2023-05-27T09:36:21;101046.34;;;24.61;60.39
54556;BME280;57291;37.520;15.106;2023-05-27T09:38:50;101041.47;;;24.47;61.30
54556;BME280;57291;37.520;15.106;2023-05-27T09:41:23;101035.63;;;24.60;60.69
54556;BME280;57291;37.520;15.106;2023-05-27T09:43:55;101037.13;;;24.50;61.30
54556;BME280;57291;37.520;15.106;2023-05-27T09:46:24;101031.03;;;24.37;63.37
54556;BME280;57291;37.520;15.106;2023-05-27T09:48:53;101031.78;;;24.34;63.88
54556;BME280;57291;37.520;15.106;2023-05-27T09:51:21;101033.91;;;24.44;64.90
54556;BME280;57291;37.520;15.106;2023-05-27T09:53:51;101031.72;;;24.27;63.32
54556;BME280;57291;37.520;15.106;2023-05-27T09:56:22;101029.06;;;24.00;64.45
54556;BME280;57291;37.520;15.106;2023-05-27T09:58:50;101028.16;;;24.26;65.36
54556;BME280;57291;37.520;15.106;2023-05-27T10:01:18;101028.25;;;24.37;63.37
54556;BME280;57291;37.520;15.106;2023-05-27T10:03:46;101031.31;;;24.66;62.30
54556;BME280;57291;37.520;15.106;2023-05-27T10:06:14;101028.53;;;24.62;62.55
54556;BME280;57291;37.520;15.106;2023-05-27T10:08:43;101028.50;;;24.59;62.14
54556;BME280;57291;37.520;15.106;2023-05-27T10:11:10;101024.56;;;24.22;63.67
54556;BME280;57291;37.520;15.106;2023-05-27T10:13:38;101025.22;;;24.49;62.98
54556;BME280;57291;37.520;15.106;2023-05-27T10:16:06;101021.47;;;24.72;61.58
54556;BME280;57291;37.520;15.106;2023-05-27T10:18:33;101013.19;;;24.83;61.23
54556;BME280;57291;37.520;15.106;2023-05-27T10:21:04;101007.13;;;24.70;61.83
54556;BME280;57291;37.520;15.106;2023-05-27T10:23:32;101011.34;;;24.49;62.98
54556;BME280;57291;37.520;15.106;2023-05-27T10:26:05;101000.28;;;24.56;62.73
54556;BME280;57291;37.520;15.106;2023-05-27T10:28:38;101001.13;;;24.64;62.74
54556;BME280;57291;37.520;15.106;2023-05-27T10:31:16;100997.03;;;24.47;62.49
54556;BME280;57291;37.520;15.106;2023-05-27T10:33:46;100999.34;;;24.04;64.66
54556;BME280;57291;37.520;15.106;2023-05-27T10:36:34;101000.44;;;23.62;65.60
54556;BME280;57291;37.520;15.106;2023-05-27T10:41:39;101001.53;;;23.54;66.18
54556;BME280;57291;37.520;15.106;2023-05-27T10:44:10;100992.03;;;23.55;66.82
54556;BME280;57291;37.520;15.106;2023-05-27T10:46:42;100992.69;;;23.75;67.76
54556;BME280;57291;37.520;15.106;2023-05-27T10:49:22;100992.97;;;24.00;65.13
54556;BME280;57291;37.520;15.106;2023-05-27T10:51:51;100999.06;;;23.76;65.11
54556;BME280;57291;37.520;15.106;2023-05-27T10:54:24;100993.88;;;23.74;65.48
54556;BME280;57291;37.520;15.106;2023-05-27T10:56:55;100988.72;;;23.73;65.10
54556;BME280;57291;37.520;15.106;2023-05-27T10:59:23;100996.50;;;23.63;65.49
54556;BME280;57291;37.520;15.106;2023-05-27T11:01:52;100980.00;;;23.44;66.63
54556;BME280;57291;37.520;15.106;2023-05-27T11:04:20;100981.97;;;23.13;66.59
54556;BME280;57291;37.520;15.106;2023-05-27T11:06:59;100983.47;;;23.07;66.55
54556;BME280;57291;37.520;15.106;2023-05-27T11:09:31;100984.13;;;22.97;67.53
54556;BME280;57291;37.520;15.106;2023-05-27T11:12:02;100973.69;;;22.90;67.42
54556;BME280;57291;37.520;15.106;2023-05-27T11:14:32;100980.16;;;22.98;68.45
54556;BME280;57291;37.520;15.106;2023-05-27T11:17:00;100975.47;;;23.02;68.12
54556;BME280;57291;37.520;15.106;2023-05-27T11:19:27;100975.81;;;23.27;68.29
54556;BME280;57291;37.520;15.106;2023-05-27T11:21:55;100966.81;;;23.34;66.24
54556;BME280;57291;37.520;15.106;2023-05-27T11:24:22;100971.94;;;23.65;65.97
54556;BME280;57291;37.520;15.106;2023-05-27T11:26:49;100970.53;;;23.79;67.23
54556;BME280;57291;37.520;15.106;2023-05-27T11:29:18;100967.50;;;23.57;67.06
54556;BME280;57291;37.520;15.106;2023-05-27T11:31:49;100970.09;;;23.73;66.23
54556;BME280;57291;37.520;15.106;2023-05-27T11:34:17;100971.91;;;23.96;65.50
54556;BME280;57291;37.520;15.106;2023-05-27T11:36:49;100963.00;;;24.17;65.03
54556;BME280;57291;37.520;15.106;2023-05-27T11:39:16;100965.13;;;24.34;64.09
54556;BME280;57291;37.520;15.106;2023-05-27T11:41:50;100967.91;;;24.34;62.91
54556;BME280;57291;37.520;15.106;2023-05-27T11:44:20;100960.50;;;24.45;63.05
54556;BME280;57291;37.520;15.106;2023-05-27T11:47:01;100959.84;;;24.63;62.38
54556;BME280;57291;37.520;15.106;2023-05-27T11:49:28;100952.75;;;24.69;62.62
54556;BME280;57291;37.520;15.106;2023-05-27T11:51:56;100955.97;;;24.30;63.35
54556;BME280;57291;37.520;15.106;2023-05-27T11:54:26;100955.19;;;23.92;63.21
54556;BME280;57291;37.520;15.106;2023-05-27T11:56:55;100956.09;;;23.66;64.48
54556;BME280;57291;37.520;15.106;2023-05-27T11:59:23;100955.19;;;23.58;66.52
54556;BME280;57291;37.520;15.106;2023-05-27T12:01:52;100946.47;;;23.26;66.66
54556;BME280;57291;37.520;15.106;2023-05-27T12:04:21;100943.88;;;23.07;67.13
54556;BME280;57291;37.520;15.106;2023-05-27T12:06:48;100944.44;;;22.93;67.91
54556;BME280;57291;37.520;15.106;2023-05-27T12:09:15;100947.78;;;22.79;67.58
54556;BME280;57291;37.520;15.106;2023-05-27T12:11:43;100950.88;;;22.74;68.36
54556;BME280;57291;37.520;15.106;2023-05-27T12:14:10;100954.47;;;22.75;67.89
54556;BME280;57291;37.520;15.106;2023-05-27T12:16:37;100955.19;;;22.71;67.83
54556;BME280;57291;37.520;15.106;2023-05-27T12:19:04;100956.28;;;22.67;68.49
54556;BME280;57291;37.520;15.106;2023-05-27T12:21:32;100957.13;;;22.67;68.06
54556;BME280;57291;37.520;15.106;2023-05-27T12:23:59;100958.50;;;22.54;68.70
54556;BME280;57291;37.520;15.106;2023-05-27T12:26:26;100943.13;;;22.60;68.99
54556;BME280;57291;37.520;15.106;2023-05-27T12:28:53;100931.94;;;22.53;70.23
54556;BME280;57291;37.520;15.106;2023-05-27T12:31:21;100933.47;;;22.51;69.63
54556;BME280;57291;37.520;15.106;2023-05-27T12:33:49;100939.03;;;22.51;71.20
54556;BME280;57291;37.520;15.106;2023-05-27T12:36:17;100931.09;;;22.49;74.47
54556;BME280;57291;37.520;15.106;2023-05-27T12:38:46;100923.38;;;22.62;75.49
54556;BME280;57291;37.520;15.106;2023-05-27T12:41:13;100924.44;;;22.54;77.18
54556;BME280;57291;37.520;15.106;2023-05-27T12:43:40;100927.09;;;22.46;75.04
54556;BME280;57291;37.520;15.106;2023-05-27T12:46:07;100925.63;;;22.53;75.21
54556;BME280;57291;37.520;15.106;2023-05-27T12:48:35;100921.09;;;22.67;76.82
54556;BME280;57291;37.520;15.106;2023-05-27T12:51:02;100922.28;;;22.93;74.60
54556;BME280;57291;37.520;15.106;2023-05-27T12:53:29;100927.03;;;23.23;70.53
54556;BME280;57291;37.520;15.106;2023-05-27T12:55:57;100917.91;;;23.56;70.26
54556;BME280;57291;37.520;15.106;2023-05-27T12:58:24;100931.13;;;23.66;68.32
54556;BME280;57291;37.520;15.106;2023-05-27T13:00:51;100923.34;;;23.79;68.69
54556;BME280;57291;37.520;15.106;2023-05-27T13:03:21;100915.53;;;23.88;66.70